Time;durP1;ratioP1;P1;durP2;ratioP2;P2;SDS_P1;SDS_P2;PMS_P1;PMS_P2;Temp;Humidity;BMP_temperature;BMP_pressure;BME280_temperature;BME280_humidity;BME280_pressure;Samples;Min_cycle;Max_cycle;Signal;HPM_P1;HPM_P2
2024/01/19 00:00:27;;;;;;;;;;;;;;;-0.13;100.00;101369.16;5088526;28;19934;-74
2024/01/19 00:02:52;;;;;;;;;;;;;;;-0.15;100.00;101366.56;5087435;28;20848;-74
2024/01/19 00:05:19;;;;;;;;;;;;;;;-0.14;100.00;101370.03;5088272;28;19943;-74
2024/01/19 00:07:45;;;;;;;;;;;;;;;-0.14;100.00;101368.31;5088438;28;19920;-74
2024/01/19 00:10:10;;;;;;;;;;;;;;;-0.13;100.00;101367.44;5085610;28;19920;-74
2024/01/19 00:12:35;;;;;;;;;;;;;;;-0.11;100.00;101368.34;5089343;28;20244;-74
2024/01/19 00:15:02;;;;;;;;;;;;;;;-0.11;100.00;101364.91;5091472;28;19987;-74
2024/01/19 00:17:27;;;;;;;;;;;;;;;-0.12;100.00;101364.03;5092477;28;19927;-74
2024/01/19 00:19:52;;;;;;;;;;;;;;;-0.12;100.00;101368.34;5094089;28;19926;-74
2024/01/19 00:22:18;;;;;;;;;;;;;;;-0.16;100.00;101382.00;5094561;28;19924;-74
2024/01/19 00:24:43;;;;;;;;;;;;;;;-0.22;100.00;101383.66;5093967;28;19958;-74
2024/01/19 00:27:08;;;;;;;;;;;;;;;-0.33;100.00;101382.66;5095366;28;19924;-74
2024/01/19 00:29:33;;;;;;;;;;;;;;;-0.37;100.00;101386.03;5093822;28;19919;-74
2024/01/19 00:31:59;;;;;;;;;;;;;;;-0.43;100.00;101383.38;5094786;28;19927;-74
2024/01/19 00:34:24;;;;;;;;;;;;;;;-0.46;100.00;101384.19;5090416;28;19919;-74
2024/01/19 00:36:49;;;;;;;;;;;;;;;-0.47;100.00;101385.06;5093534;28;20066;-74
2024/01/19 00:39:14;;;;;;;;;;;;;;;-0.39;100.00;101385.16;5094549;28;19920;-74
2024/01/19 00:41:40;;;;;;;;;;;;;;;-0.34;100.00;101391.22;5092223;28;19923;-74
2024/01/19 00:44:05;;;;;;;;;;;;;;;-0.32;100.00;101392.09;5094660;28;19920;-74
2024/01/19 00:46:30;;;;;;;;;;;;;;;-0.30;100.00;101399.84;5091500;28;19954;-74
2024/01/19 00:48:55;;;;;;;;;;;;;;;-0.32;100.00;101396.41;5093207;28;19962;-74
2024/01/19 00:51:21;;;;;;;;;;;;;;;-0.33;100.00;101399.81;5096268;28;19912;-74
2024/01/19 00:53:46;;;;;;;;;;;;;;;-0.32;100.00;101404.13;5094436;28;19920;-74
2024/01/19 00:56:11;;;;;;;;;;;;;;;-0.33;100.00;101399.81;5095036;28;19920;-74
2024/01/19 00:58:40;;;;;;;;;;;;;;;-0.35;100.00;101397.22;5093776;28;20096;-74
2024/01/19 01:01:06;;;;;;;;;;;;;;;-0.35;100.00;101394.63;5088450;28;19981;-74
2024/01/19 01:03:31;;;;;;;;;;;;;;;-0.37;100.00;101398.91;5092507;28;19939;-74
2024/01/19 01:05:57;;;;;;;;;;;;;;;-0.40;100.00;101402.31;5092696;28;19965;-74
2024/01/19 01:08:26;;;;;;;;;;;;;;;-0.42;100.00;101404.00;5093688;28;19918;-74
2024/01/19 01:10:52;;;;;;;;;;;;;;;-0.50;100.00;101412.47;5095954;28;19942;-74
2024/01/19 01:13:17;;;;;;;;;;;;;;;-0.50;100.00;101415.03;5094680;28;19912;-74
2024/01/19 01:15:43;;;;;;;;;;;;;;;-0.46;100.00;101425.38;5094517;28;19943;-74
2024/01/19 01:18:08;;;;;;;;;;;;;;;-0.43;100.00;101425.41;5093219;28;20262;-74
2024/01/19 01:20:33;;;;;;;;;;;;;;;-0.42;100.00;101423.72;5093604;28;20730;-74
2024/01/19 01:22:58;;;;;;;;;;;;;;;-0.46;100.00;101424.50;5094655;28;19959;-74
2024/01/19 01:25:24;;;;;;;;;;;;;;;-0.49;100.00;101427.03;5094121;28;19951;-74
2024/01/19 01:27:49;;;;;;;;;;;;;;;-0.53;100.00;101426.13;5091693;28;20295;-74
2024/01/19 01:30:14;;;;;;;;;;;;;;;-0.56;100.00;101423.53;5090197;28;19965;-74
2024/01/19 01:32:39;;;;;;;;;;;;;;;-0.66;100.00;101435.38;5092341;28;19928;-74
2024/01/19 01:35:05;;;;;;;;;;;;;;;-0.75;100.00;101432.66;5093105;28;19927;-74
2024/01/19 01:37:30;;;;;;;;;;;;;;;-0.78;100.00;101427.50;5091159;28;20231;-74
2024/01/19 01:39:55;;;;;;;;;;;;;;;-0.73;100.00;101433.53;5092181;28;20402;-74
2024/01/19 01:42:21;;;;;;;;;;;;;;;-0.66;100.00;101437.94;5093588;28;19988;-74
2024/01/19 01:44:47;;;;;;;;;;;;;;;-0.63;100.00;101438.00;5093317;28;20243;-74
2024/01/19 01:47:12;;;;;;;;;;;;;;;-0.61;100.00;101435.47;5089560;28;19957;-74
2024/01/19 01:49:37;;;;;;;;;;;;;;;-0.62;100.00;101437.19;5093658;28;19920;-73
2024/01/19 01:52:03;;;;;;;;;;;;;;;-0.68;100.00;101443.94;5089744;28;20012;-73
2024/01/19 01:54:28;;;;;;;;;;;;;;;-0.71;100.00;101449.91;5092039;28;19961;-74
2024/01/19 01:56:54;;;;;;;;;;;;;;;-0.69;100.00;101442.19;5090229;28;20242;-74
2024/01/19 01:59:20;;;;;;;;;;;;;;;-0.71;100.00;101454.16;5092927;28;20248;-74
2024/01/19 02:01:46;;;;;;;;;;;;;;;-0.73;100.00;101454.13;5092879;28;20126;-74
2024/01/19 02:04:11;;;;;;;;;;;;;;;-0.70;100.00;101448.19;5093297;28;19919;-73
2024/01/19 02:06:38;;;;;;;;;;;;;;;-0.71;100.00;101455.03;5096086;28;19918;-73
2024/01/19 02:09:04;;;;;;;;;;;;;;;-0.69;100.00;101461.06;5092841;28;19920;-73
2024/01/19 02:11:29;;;;;;;;;;;;;;;-0.69;100.00;101467.91;5095270;28;19926;-73
2024/01/19 02:13:54;;;;;;;;;;;;;;;-0.68;100.00;101474.78;5090434;28;20144;-73
2024/01/19 02:16:19;;;;;;;;;;;;;;;-0.62;100.00;101474.88;5090105;28;19920;-73
2024/01/19 02:18:45;;;;;;;;;;;;;;;-0.55;100.00;101475.84;5093462;28;20194;-73
2024/01/19 02:21:10;;;;;;;;;;;;;;;-0.54;100.00;101473.31;5089158;28;19924;-74
2024/01/19 02:23:39;;;;;;;;;;;;;;;-0.52;100.00;101473.31;5092860;28;20259;-74
2024/01/19 02:26:05;;;;;;;;;;;;;;;-0.50;100.00;101479.34;5093336;28;20320;-74
2024/01/19 02:28:31;;;;;;;;;;;;;;;-0.50;100.00;101479.34;5085876;28;19920;-74
2024/01/19 02:30:56;;;;;;;;;;;;;;;-0.50;100.00;101482.78;5090893;28;19924;-73
2024/01/19 02:33:21;;;;;;;;;;;;;;;-0.49;100.00;101484.53;5089896;28;19983;-73
2024/01/19 02:35:46;;;;;;;;;;;;;;;-0.49;100.00;101487.09;5092670;28;19924;-73
2024/01/19 02:38:12;;;;;;;;;;;;;;;-0.49;100.00;101492.25;5091098;28;19947;-73
2024/01/19 02:40:37;;;;;;;;;;;;;;;-0.49;100.00;101499.97;5092321;28;19950;-73
2024/01/19 02:43:02;;;;;;;;;;;;;;;-0.50;100.00;101489.66;5089660;28;20163;-73
2024/01/19 02:45:27;;;;;;;;;;;;;;;-0.53;100.00;101497.31;5092928;28;20207;-73
2024/01/19 02:47:53;;;;;;;;;;;;;;;-0.56;100.00;101493.00;5092098;28;19991;-74
2024/01/19 02:50:18;;;;;;;;;;;;;;;-0.60;100.00;101499.81;5091824;28;19920;-74
2024/01/19 02:52:43;;;;;;;;;;;;;;;-0.60;100.00;101501.50;5092789;28;20119;-74
2024/01/19 02:55:09;;;;;;;;;;;;;;;-0.61;100.00;101503.22;5092264;28;19920;-74
2024/01/19 02:57:34;;;;;;;;;;;;;;;-0.63;100.00;101504.03;5093826;28;20119;-73
2024/01/19 02:59:59;;;;;;;;;;;;;;;-0.62;100.00;101510.91;5096879;28;19923;-73
2024/01/19 03:02:24;;;;;;;;;;;;;;;-0.65;100.00;101505.72;5097032;28;20091;-73
2024/01/19 03:04:50;;;;;;;;;;;;;;;-0.64;100.00;101503.19;5096748;28;19943;-73
2024/01/19 03:07:15;;;;;;;;;;;;;;;-0.57;100.00;101517.00;5097807;28;20314;-73
2024/01/19 03:09:40;;;;;;;;;;;;;;;-0.54;100.00;101518.75;5097272;28;19914;-74
2024/01/19 03:12:06;;;;;;;;;;;;;;;-0.51;100.00;101517.09;5096362;28;20184;-73
2024/01/19 03:14:34;;;;;;;;;;;;;;;-0.48;100.00;101511.13;5097289;28;19954;-73
2024/01/19 03:16:59;;;;;;;;;;;;;;;-0.46;100.00;101512.00;5096328;28;19920;-74
2024/01/19 03:19:24;;;;;;;;;;;;;;;-0.44;100.00;101515.47;5096928;28;19908;-74
2024/01/19 03:21:50;;;;;;;;;;;;;;;-0.44;100.00;101525.75;5098720;28;19922;-73
2024/01/19 03:24:15;;;;;;;;;;;;;;;-0.45;100.00;101518.91;5097002;28;19931;-73
2024/01/19 03:26:42;;;;;;;;;;;;;;;-0.47;100.00;101516.31;5099656;28;19916;-73
2024/01/19 03:29:07;;;;;;;;;;;;;;;-0.45;100.00;101526.63;5096554;28;19920;-72
2024/01/19 03:31:32;;;;;;;;;;;;;;;-0.47;100.00;101521.44;5094259;28;19931;-72
2024/01/19 03:33:57;;;;;;;;;;;;;;;-0.47;100.00;101515.44;5096090;28;19943;-72
2024/01/19 03:36:23;;;;;;;;;;;;;;;-0.48;100.00;101516.28;5097062;28;19916;-72
2024/01/19 03:38:48;;;;;;;;;;;;;;;-0.50;100.00;101521.38;5097813;28;19928;-72
2024/01/19 03:41:13;;;;;;;;;;;;;;;-0.52;100.00;101525.66;5096624;28;19930;-72
2024/01/19 03:43:38;;;;;;;;;;;;;;;-0.53;100.00;101528.19;5098035;28;19916;-72
2024/01/19 03:46:03;;;;;;;;;;;;;;;-0.52;100.00;101527.38;5096082;28;20219;-72
2024/01/19 03:48:29;;;;;;;;;;;;;;;-0.53;100.00;101528.19;5096762;28;20120;-72
2024/01/19 03:50:54;;;;;;;;;;;;;;;-0.53;100.00;101531.63;5096104;28;20222;-72
2024/01/19 03:53:19;;;;;;;;;;;;;;;-0.53;100.00;101528.19;5097010;28;20258;-72
2024/01/19 03:55:44;;;;;;;;;;;;;;;-0.59;100.00;101532.41;5095567;28;20337;-72
2024/01/19 03:58:10;;;;;;;;;;;;;;;-0.59;100.00;101541.81;5095261;28;19982;-72
2024/01/19 04:00:35;;;;;;;;;;;;;;;-0.64;100.00;101534.06;5096115;28;19931;-73
2024/01/19 04:03:00;;;;;;;;;;;;;;;-0.70;100.00;101539.06;5094663;28;19931;-73
2024/01/19 04:05:25;;;;;;;;;;;;;;;-0.66;100.00;101535.72;5096444;28;19916;-73
2024/01/19 04:07:51;;;;;;;;;;;;;;;-0.65;100.00;101534.03;5095694;28;19999;-73
2024/01/19 04:10:16;;;;;;;;;;;;;;;-0.59;100.00;101544.41;5093153;28;19921;-73
2024/01/19 04:12:42;;;;;;;;;;;;;;;-0.55;100.00;101543.59;5096220;28;19912;-74
2024/01/19 04:15:07;;;;;;;;;;;;;;;-0.52;100.00;101542.81;5092769;28;19920;-74
2024/01/19 04:17:32;;;;;;;;;;;;;;;-0.48;100.00;101545.44;5095553;28;20220;-74
2024/01/19 04:19:57;;;;;;;;;;;;;;;-0.41;100.00;101546.41;5095113;28;20001;-74
2024/01/19 04:22:23;;;;;;;;;;;;;;;-0.37;100.00;101555.91;5095669;28;19924;-74
2024/01/19 04:24:48;;;;;;;;;;;;;;;-0.39;100.00;101547.28;5095420;28;20003;-74
2024/01/19 04:27:13;;;;;;;;;;;;;;;-0.37;100.00;101561.06;5093335;28;19920;-74
2024/01/19 04:29:38;;;;;;;;;;;;;;;-0.52;100.00;101586.56;5092768;28;19987;-74
2024/01/19 04:32:04;;;;;;;;;;;;;;;-0.51;100.00;101596.88;5092211;28;19920;-74
2024/01/19 04:34:29;;;;;;;;;;;;;;;-0.47;100.00;101597.78;5094777;28;19983;-74
2024/01/19 04:36:54;;;;;;;;;;;;;;;-0.42;100.00;101606.44;5091071;28;19985;-74
2024/01/19 04:39:19;;;;;;;;;;;;;;;-0.31;100.00;101620.38;5095436;28;20132;-74
2024/01/19 04:41:45;;;;;;;;;;;;;;;-0.13;100.00;101631.78;5095287;28;20220;-74
2024/01/19 04:44:10;;;;;;;;;;;;;;;-0.08;100.00;101635.31;5096935;28;19912;-74
2024/01/19 04:46:35;;;;;;;;;;;;;;;-0.13;100.00;101614.63;5093392;28;19927;-74
2024/01/19 04:49:01;;;;;;;;;;;;;;;-0.11;100.00;101618.13;5094420;28;19948;-74
2024/01/19 04:51:26;;;;;;;;;;;;;;;-0.13;100.00;101624.91;5095401;28;19923;-74
2024/01/19 04:53:51;;;;;;;;;;;;;;;-0.07;100.00;101637.06;5094431;28;19920;-74
2024/01/19 04:56:16;;;;;;;;;;;;;;;-0.07;100.00;101640.50;5095166;28;20115;-74
2024/01/19 04:58:42;;;;;;;;;;;;;;;-0.02;100.00;101643.13;5095189;28;19927;-74
2024/01/19 05:01:07;;;;;;;;;;;;;;;0.03;100.00;101644.06;5093898;28;19931;-74
2024/01/19 05:03:32;;;;;;;;;;;;;;;0.03;100.00;101631.19;5095249;28;19928;-74
2024/01/19 05:05:57;;;;;;;;;;;;;;;0.04;100.00;101638.09;5094119;28;20189;-74
2024/01/19 05:08:23;;;;;;;;;;;;;;;-0.01;100.00;101639.72;5094707;28;19926;-74
2024/01/19 05:10:48;;;;;;;;;;;;;;;-0.02;100.00;101628.56;5094404;28;19916;-74
2024/01/19 05:13:13;;;;;;;;;;;;;;;0.02;100.00;101644.03;5094421;28;19927;-74
2024/01/19 05:15:39;;;;;;;;;;;;;;;0.00;100.00;101651.78;5095371;28;19993;-74
2024/01/19 05:18:04;;;;;;;;;;;;;;;0.01;100.00;101655.19;5093673;28;20210;-74
2024/01/19 05:20:29;;;;;;;;;;;;;;;0.00;100.00;101656.91;5093749;28;20231;-74
2024/01/19 05:22:55;;;;;;;;;;;;;;;-0.07;100.00;101660.22;5097617;28;20230;-74
2024/01/19 05:25:20;;;;;;;;;;;;;;;-0.07;100.00;101665.38;5094212;28;20206;-73
2024/01/19 05:27:46;;;;;;;;;;;;;;;-0.14;100.00;101668.69;5094532;28;19924;-73
2024/01/19 05:30:13;;;;;;;;;;;;;;;-0.18;100.00;101677.19;5094283;28;20139;-73
2024/01/19 05:32:38;;;;;;;;;;;;;;;-0.17;100.00;101673.78;5094052;28;19923;-74
2024/01/19 05:35:04;;;;;;;;;;;;;;;-0.13;100.00;101683.28;5093490;28;19916;-74
2024/01/19 05:37:29;;;;;;;;;;;;;;;-0.14;100.00;101676.44;5095223;28;19923;-73
2024/01/19 05:39:54;;;;;;;;;;;;;;;-0.22;100.00;101687.47;5095420;28;20263;-73
2024/01/19 05:42:20;;;;;;;;;;;;;;;-0.25;100.00;101678.81;5093912;28;20123;-73
2024/01/19 05:44:45;;;;;;;;;;;;;;;-0.35;100.00;101684.63;5096454;28;19982;-73
2024/01/19 05:47:10;;;;;;;;;;;;;;;-0.34;100.00;101692.38;5093518;28;19916;-73
2024/01/19 05:49:36;;;;;;;;;;;;;;;-0.36;100.00;101699.22;5095540;28;20370;-73
2024/01/19 05:52:01;;;;;;;;;;;;;;;-0.36;100.00;101691.50;5090879;28;19919;-73
2024/01/19 05:54:27;;;;;;;;;;;;;;;-0.37;100.00;101705.19;5091177;28;20061;-73
2024/01/19 05:56:52;;;;;;;;;;;;;;;-0.46;100.00;101711.03;5092258;28;20120;-73
2024/01/19 05:59:17;;;;;;;;;;;;;;;-0.49;100.00;101718.72;5093042;28;19920;-73
2024/01/19 06:01:42;;;;;;;;;;;;;;;-0.53;100.00;101731.47;5092968;28;20237;-73
2024/01/19 06:04:07;;;;;;;;;;;;;;;-0.62;100.00;101727.91;5090484;28;19912;-73
2024/01/19 06:06:33;;;;;;;;;;;;;;;-0.59;100.00;101730.50;5089337;28;19920;-73
2024/01/19 06:08:58;;;;;;;;;;;;;;;-0.61;100.00;101731.34;5089764;28;20172;-73
2024/01/19 06:11:23;;;;;;;;;;;;;;;-0.60;100.00;101741.66;5093571;28;20207;-73
2024/01/19 06:13:50;;;;;;;;;;;;;;;-0.65;100.00;101743.25;5089304;28;19920;-73
2024/01/19 06:16:15;;;;;;;;;;;;;;;-0.70;100.00;101742.31;5093585;28;20095;-73
2024/01/19 06:18:40;;;;;;;;;;;;;;;-0.65;100.00;101747.56;5093120;28;19993;-73
2024/01/19 06:21:09;;;;;;;;;;;;;;;-0.59;100.00;101743.38;5092086;28;20158;-73
2024/01/19 06:23:36;;;;;;;;;;;;;;;-0.54;100.00;101753.78;5092928;28;20025;-73
2024/01/19 06:26:01;;;;;;;;;;;;;;;-0.55;100.00;101762.31;5098187;28;20263;-73
2024/01/19 06:28:26;;;;;;;;;;;;;;;-0.60;100.00;101761.34;5098551;28;19952;-73
2024/01/19 06:30:51;;;;;;;;;;;;;;;-0.65;100.00;101755.28;5092885;28;20259;-73
2024/01/19 06:33:16;;;;;;;;;;;;;;;-0.70;100.00;101762.88;5096265;28;20171;-73
2024/01/19 06:35:42;;;;;;;;;;;;;;;-0.72;100.00;101771.41;5095335;28;20207;-73
2024/01/19 06:38:07;;;;;;;;;;;;;;;-0.79;100.00;101776.41;5091149;28;19919;-73
2024/01/19 06:40:32;;;;;;;;;;;;;;;-0.78;100.00;101767.03;5094019;28;20211;-73
2024/01/19 06:42:58;;;;;;;;;;;;;;;-0.79;100.00;101775.56;5093194;28;20575;-73
2024/01/19 06:45:23;;;;;;;;;;;;;;;-0.83;100.00;101784.06;5093906;28;19923;-73
2024/01/19 06:47:48;;;;;;;;;;;;;;;-0.84;100.00;101784.88;5091276;28;19916;-73
2024/01/19 06:50:13;;;;;;;;;;;;;;;-0.86;100.00;101786.56;5089583;28;19921;-73
2024/01/19 06:52:39;;;;;;;;;;;;;;;-0.91;100.00;101786.47;5091900;28;19959;-73
2024/01/19 06:55:04;;;;;;;;;;;;;;;-0.90;100.00;101784.75;5094072;28;19919;-73
2024/01/19 06:57:30;;;;;;;;;;;;;;;-0.93;100.00;101793.25;5092009;28;20183;-73
2024/01/19 06:59:55;;;;;;;;;;;;;;;-0.98;100.00;101800.03;5093271;28;19951;-73
2024/01/19 07:02:21;;;;;;;;;;;;;;;-0.99;100.00;101808.56;5091569;28;19963;-73
2024/01/19 07:04:48;;;;;;;;;;;;;;;-0.98;100.00;101810.31;5092007;28;19920;-73
2024/01/19 07:07:13;;;;;;;;;;;;;;;-0.95;100.00;101822.34;5091069;28;20089;-73
2024/01/19 07:09:38;;;;;;;;;;;;;;;-0.97;100.00;101820.59;5092325;28;19945;-73
2024/01/19 07:12:04;;;;;;;;;;;;;;;-0.97;100.00;101827.47;5091944;28;19927;-73
2024/01/19 07:14:29;;;;;;;;;;;;;;;-1.00;100.00;101828.28;5093314;28;19958;-73
2024/01/19 07:16:55;;;;;;;;;;;;;;;-1.03;100.00;101823.03;5092003;28;20175;-73
2024/01/19 07:19:20;;;;;;;;;;;;;;;-1.07;100.00;101820.38;5093145;28;20119;-73
2024/01/19 07:21:45;;;;;;;;;;;;;;;-1.11;100.00;101824.59;5092506;28;19951;-73
2024/01/19 07:24:11;;;;;;;;;;;;;;;-1.13;100.00;101830.50;5092735;28;19928;-73
2024/01/19 07:26:37;;;;;;;;;;;;;;;-1.14;100.00;101827.09;5093165;28;19923;-73
2024/01/19 07:29:06;;;;;;;;;;;;;;;-1.19;100.00;101836.38;5091201;28;20648;-73
2024/01/19 07:31:31;;;;;;;;;;;;;;;-1.25;100.00;101842.25;5091614;28;20005;-73
2024/01/19 07:33:56;;;;;;;;;;;;;;;-1.23;100.00;101844.84;5090569;28;20163;-73
2024/01/19 07:36:22;;;;;;;;;;;;;;;-1.23;100.00;101842.28;5091371;28;19985;-73
2024/01/19 07:38:48;;;;;;;;;;;;;;;-1.24;100.00;101855.97;5090867;28;19920;-73
2024/01/19 07:41:13;;;;;;;;;;;;;;;-1.27;100.00;101861.91;5091156;28;19923;-73
2024/01/19 07:43:38;;;;;;;;;;;;;;;-1.31;100.00;101864.34;5092498;28;19924;-73
2024/01/19 07:46:03;;;;;;;;;;;;;;;-1.34;100.00;101865.16;5095675;28;19916;-73
2024/01/19 07:48:28;;;;;;;;;;;;;;;-1.29;100.00;101865.25;5096200;28;20011;-73
2024/01/19 07:50:54;;;;;;;;;;;;;;;-1.23;100.00;101873.13;5095672;28;20275;-73
2024/01/19 07:53:19;;;;;;;;;;;;;;;-1.20;100.00;101871.50;5096195;28;20235;-73
2024/01/19 07:55:44;;;;;;;;;;;;;;;-1.13;100.00;101874.22;5098775;28;19916;-73
2024/01/19 07:58:09;;;;;;;;;;;;;;;-1.08;100.00;101876.06;5095823;28;19920;-73
2024/01/19 08:00:35;;;;;;;;;;;;;;;-1.02;100.00;101877.91;5098488;28;19924;-73
2024/01/19 08:03:00;;;;;;;;;;;;;;;-0.97;100.00;101873.75;5094720;28;20333;-73
2024/01/19 08:05:25;;;;;;;;;;;;;;;-0.88;100.00;101885.94;5095765;28;19920;-73
2024/01/19 08:07:52;;;;;;;;;;;;;;;-0.83;100.00;101887.78;5095410;28;20111;-73
2024/01/19 08:10:18;;;;;;;;;;;;;;;-0.77;100.00;101892.22;5097624;28;19962;-73
2024/01/19 08:12:43;;;;;;;;;;;;;;;-0.70;100.00;101895.81;5096016;28;19908;-73
2024/01/19 08:15:09;;;;;;;;;;;;;;;-0.63;100.00;101897.69;5096886;28;20259;-73
2024/01/19 08:17:34;;;;;;;;;;;;;;;-0.57;100.00;101904.66;5095441;28;20083;-73
2024/01/19 08:19:59;;;;;;;;;;;;;;;-0.53;100.00;101899.59;5093849;28;19920;-75
2024/01/19 08:22:25;;;;;;;;;;;;;;;-0.48;100.00;101900.56;5095190;28;19920;-73
2024/01/19 08:24:50;;;;;;;;;;;;;;;-0.43;100.00;101908.41;5095487;28;19920;-73
2024/01/19 08:27:15;;;;;;;;;;;;;;;-0.37;100.00;101910.25;5091248;28;20149;-73
2024/01/19 08:29:40;;;;;;;;;;;;;;;-0.32;100.00;101914.66;5095216;28;19961;-73
2024/01/19 08:32:06;;;;;;;;;;;;;;;-0.30;100.00;101918.13;5092075;28;19950;-73
2024/01/19 08:34:31;;;;;;;;;;;;;;;-0.25;100.00;101910.50;5095176;28;20230;-73
2024/01/19 08:36:56;;;;;;;;;;;;;;;-0.19;100.00;101918.34;5094537;28;19920;-73
2024/01/19 08:39:21;;;;;;;;;;;;;;;-0.15;100.00;101920.16;5095167;28;20108;-73
2024/01/19 08:41:47;;;;;;;;;;;;;;;-0.11;100.00;101919.41;5091548;28;19930;-73
2024/01/19 08:44:13;;;;;;;;;;;;;;;-0.07;100.00;101920.34;5083504;28;19946;-73
2024/01/19 08:46:42;;;;;;;;;;;;;;;-0.06;100.00;101920.34;5077485;28;20223;-73
2024/01/19 08:49:07;;;;;;;;;;;;;;;-0.02;100.00;101921.25;5075179;28;19920;-73
2024/01/19 08:51:32;;;;;;;;;;;;;;;0.02;100.00;101917.94;5075168;28;20005;-73
2024/01/19 08:53:58;;;;;;;;;;;;;;;0.05;100.00;101920.56;5084335;28;19931;-73
2024/01/19 08:56:23;;;;;;;;;;;;;;;0.10;100.00;101921.53;5087552;28;20166;-73
2024/01/19 08:58:48;;;;;;;;;;;;;;;0.13;100.00;101920.72;5075925;28;20103;-73
2024/01/19 09:01:17;;;;;;;;;;;;;;;0.13;100.00;101931.03;5076018;28;20068;-73
2024/01/19 09:03:43;;;;;;;;;;;;;;;0.13;100.00;101937.03;5075262;28;19995;-73
2024/01/19 09:06:08;;;;;;;;;;;;;;;0.15;100.00;101947.38;5074597;28;19924;-73
2024/01/19 09:08:33;;;;;;;;;;;;;;;0.18;100.00;101947.44;5077849;28;19920;-73
2024/01/19 09:10:58;;;;;;;;;;;;;;;0.22;100.00;101944.09;5089399;28;19953;-73
2024/01/19 09:13:23;;;;;;;;;;;;;;;0.25;100.00;101951.84;5088243;28;19944;-73
2024/01/19 09:15:49;;;;;;;;;;;;;;;0.27;100.00;101957.91;5092035;28;19920;-73
2024/01/19 09:18:14;;;;;;;;;;;;;;;0.32;100.00;101955.44;5092858;28;20189;-73
2024/01/19 09:20:39;;;;;;;;;;;;;;;0.32;100.00;101956.31;5089787;28;19920;-73
2024/01/19 09:23:04;;;;;;;;;;;;;;;0.35;100.00;101956.38;5089956;28;19948;-73
2024/01/19 09:25:31;;;;;;;;;;;;;;;0.38;100.00;101959.00;5090699;28;19924;-73
2024/01/19 09:27:57;;;;;;;;;;;;;;;0.40;100.00;101966.78;5089741;28;19948;-73
2024/01/19 09:30:22;;;;;;;;;;;;;;;0.43;100.00;101961.66;5089165;28;19920;-74
2024/01/19 09:32:47;;;;;;;;;;;;;;;0.44;100.00;101970.25;5089559;28;19938;-73
2024/01/19 09:35:13;;;;;;;;;;;;;;;0.43;100.00;101969.41;5089588;28;19991;-73
2024/01/19 09:37:38;;;;;;;;;;;;;;;0.47;100.00;101972.91;5090515;28;20100;-73
2024/01/19 09:40:04;;;;;;;;;;;;;;;0.49;100.00;101971.22;5088135;28;20276;-73
2024/01/19 09:42:32;;;;;;;;;;;;;;;0.50;100.00;101971.25;5090799;28;20254;-73
2024/01/19 09:45:03;;;;;;;;;;;;;;;0.56;100.00;101989.44;5088954;28;19926;-73
2024/01/19 09:47:40;;;;;;;;;;;;;;;0.60;100.00;101987.78;5088264;28;19985;-73
2024/01/19 09:50:06;;;;;;;;;;;;;;;0.66;100.00;101985.31;5088561;28;19916;-73
2024/01/19 09:52:49;;;;;;;;;;;;;;;0.69;100.00;101990.53;5087908;28;20273;-74
2024/01/19 09:55:15;;;;;;;;;;;;;;;0.75;100.00;101997.50;5090712;28;19924;-73
2024/01/19 09:57:43;;;;;;;;;;;;;;;0.81;100.00;101997.59;5090572;28;19926;-73
2024/01/19 10:00:08;;;;;;;;;;;;;;;0.85;100.00;102006.25;5090870;28;20125;-73
2024/01/19 10:02:33;;;;;;;;;;;;;;;0.90;100.00;102002.06;5090696;28;19967;-73
2024/01/19 10:04:59;;;;;;;;;;;;;;;0.92;100.00;102008.97;5091303;28;20111;-73
2024/01/19 10:07:25;;;;;;;;;;;;;;;0.98;100.00;102015.94;5092598;28;19916;-73
2024/01/19 10:09:51;;;;;;;;;;;;;;;1.05;100.00;102012.63;5090232;28;19993;-73
2024/01/19 10:12:18;;;;;;;;;;;;;;;1.11;100.00;102020.50;5090307;28;19926;-74
2024/01/19 10:14:43;;;;;;;;;;;;;;;1.16;100.00;102017.97;5091867;28;19974;-74
2024/01/19 10:17:09;;;;;;;;;;;;;;;1.21;100.00;102018.94;5090367;28;21098;-74
2024/01/19 10:19:34;;;;;;;;;;;;;;;1.30;100.00;102026.84;5091178;28;20218;-74
2024/01/19 10:22:19;;;;;;;;;;;;;;;1.32;100.00;102024.28;5090799;28;19931;-74
2024/01/19 10:24:57;;;;;;;;;;;;;;;1.36;100.00;102036.38;5091705;28;19930;-74
2024/01/19 10:27:35;;;;;;;;;;;;;;;1.39;100.00;102035.59;5087536;28;19924;-74
2024/01/19 10:30:09;;;;;;;;;;;;;;;1.40;100.00;102033.03;5090918;28;19924;-74
2024/01/19 10:32:35;;;;;;;;;;;;;;;1.40;100.00;102033.03;5088830;28;19927;-74
2024/01/19 10:35:04;;;;;;;;;;;;;;;1.45;100.00;102043.41;5090120;28;20218;-74
2024/01/19 10:37:29;;;;;;;;;;;;;;;1.47;100.00;102045.16;5088279;28;20199;-74
2024/01/19 10:39:54;;;;;;;;;;;;;;;1.48;100.00;102046.91;5087320;28;19927;-74
2024/01/19 10:42:20;;;;;;;;;;;;;;;1.50;100.00;102040.06;5090010;28;20226;-74
2024/01/19 10:44:45;;;;;;;;;;;;;;;1.52;100.00;102042.69;5090706;28;19969;-74
2024/01/19 10:47:12;;;;;;;;;;;;;;;1.55;100.00;102045.31;5090626;28;20240;-74
2024/01/19 10:49:37;;;;;;;;;;;;;;;1.57;100.00;102046.22;5090579;28;20239;-74
2024/01/19 10:52:03;;;;;;;;;;;;;;;1.63;100.00;102050.59;5087995;28;19943;-74
2024/01/19 10:54:28;;;;;;;;;;;;;;;1.64;100.00;102042.88;5090425;28;19924;-74
2024/01/19 10:57:05;;;;;;;;;;;;;;;1.65;100.00;102054.94;5088810;28;20021;-74
2024/01/19 10:59:31;;;;;;;;;;;;;;;1.69;100.00;102056.72;5088834;28;19968;-74
2024/01/19 11:01:58;;;;;;;;;;;;;;;1.71;100.00;102052.47;5084480;28;19955;-74
2024/01/19 11:04:23;;;;;;;;;;;;;;;1.70;100.00;102055.88;5087291;28;19923;-74
2024/01/19 11:06:48;;;;;;;;;;;;;;;1.72;100.00;102066.22;5088186;28;19920;-74
2024/01/19 11:09:13;;;;;;;;;;;;;;;1.75;100.00;102065.41;5088065;28;19916;-74
2024/01/19 11:11:43;;;;;;;;;;;;;;;1.76;100.00;102062.84;5088021;28;19920;-74
2024/01/19 11:14:09;;;;;;;;;;;;;;;1.79;100.00;102062.91;5088347;28;19924;-74
2024/01/19 11:16:39;;;;;;;;;;;;;;;1.81;100.00;102062.94;5088103;28;20830;-74
2024/01/19 11:19:05;;;;;;;;;;;;;;;1.82;100.00;102062.97;5087986;28;20355;-74
2024/01/19 11:21:30;;;;;;;;;;;;;;;1.82;100.00;102057.78;5091624;28;19995;-74
2024/01/19 11:23:56;;;;;;;;;;;;;;;1.85;100.00;102062.97;5090314;28;20105;-74
2024/01/19 11:26:40;;;;;;;;;;;;;;;1.87;100.00;102063.91;5092186;28;19920;-74
2024/01/19 11:29:08;;;;;;;;;;;;;;;1.87;100.00;102069.06;5087142;28;19927;-74
2024/01/19 11:31:35;;;;;;;;;;;;;;;1.91;100.00;102072.53;5090181;28;19920;-74
2024/01/19 11:34:00;;;;;;;;;;;;;;;1.91;100.00;102072.53;5088725;28;20007;-74
2024/01/19 11:36:38;;;;;;;;;;;;;;;1.92;100.00;102075.16;5090927;28;20254;-74
2024/01/19 11:39:05;;;;;;;;;;;;;;;1.96;100.00;102075.19;5090320;28;19920;-74
2024/01/19 11:41:36;;;;;;;;;;;;;;;1.99;100.00;102070.09;5091561;28;19928;-74
2024/01/19 11:44:03;;;;;;;;;;;;;;;2.02;100.00;102070.09;5090324;28;19971;-74
2024/01/19 11:46:42;;;;;;;;;;;;;;;2.02;100.00;102081.34;5091854;28;19961;-74
2024/01/19 11:49:08;;;;;;;;;;;;;;;2.00;100.00;102083.03;5089516;28;20243;-74
2024/01/19 11:51:34;;;;;;;;;;;;;;;2.02;100.00;102080.44;5089882;28;19920;-74
2024/01/19 11:54:00;;;;;;;;;;;;;;;2.06;100.00;102077.09;5088692;28;20245;-74
2024/01/19 11:56:26;;;;;;;;;;;;;;;2.04;100.00;102083.94;5090718;28;19920;-74
2024/01/19 11:58:53;;;;;;;;;;;;;;;2.06;100.00;102077.09;5089660;28;20264;-74
2024/01/19 12:01:18;;;;;;;;;;;;;;;2.07;100.00;102089.13;5090603;28;19946;-74
2024/01/19 12:03:44;;;;;;;;;;;;;;;2.06;100.00;102077.94;5090232;28;19920;-74
2024/01/19 12:06:09;;;;;;;;;;;;;;;2.05;100.00;102081.34;5091466;28;19924;-74
2024/01/19 12:08:34;;;;;;;;;;;;;;;2.08;100.00;102085.72;5090590;28;19943;-74
2024/01/19 12:11:00;;;;;;;;;;;;;;;2.14;100.00;102074.59;5089636;28;20186;-74
2024/01/19 12:13:26;;;;;;;;;;;;;;;2.15;100.00;102077.22;5090204;28;19991;-73
2024/01/19 12:15:52;;;;;;;;;;;;;;;2.18;100.00;102081.53;5089624;28;19920;-74
2024/01/19 12:18:17;;;;;;;;;;;;;;;2.19;100.00;102080.72;5089368;28;20237;-74
2024/01/19 12:20:45;;;;;;;;;;;;;;;2.18;100.00;102082.41;5090485;28;19924;-74
2024/01/19 12:23:13;;;;;;;;;;;;;;;2.23;100.00;102085.06;5089974;28;19917;-74